Nearby METAR Reports

 

KMTN - Baltimore/Martin, Maryland, USA
Distance from station: SSE 8mi, 13km
Updated: Tue, 03-Mar-2015 4:55pm EST
Light rain, Mist, Overcast
Light rain, Mist, Overcast
 Wind from SSE
Wind: SSE 10 mph , 17 km/h
Temperature: 32°F , 0°C
Wind Chill: 24°F , -4°C
Dew Point: 30°F , -1°C
Humidity: 93%
Barometer: 30.17 inHg , 1021.7 hPa
Summary: Light rain, Mist
Clouds: Overcast
Visibility: 2 miles , 3 km
Cloud details: Mostly cloudy 1300 ft
Mostly cloudy 2200 ft
Overcast 3800 ft
2015/03/03 21:55 KMTN 032155Z 15009KT 2SM -RABR BKN013 BKN022 OVC038 00/M01 A3017
KDMH - Baltimore/Dwntwn, Maryland, USA
Distance from station: SW 12mi, 19km
Updated: Tue, 03-Mar-2015 4:54pm EST

 
Temperature: 30°F , -1°C
Dew Point: 27°F , -3°C
Humidity: 86%
Barometer: 30.14 inHg , 1020.7 hPa
2015/03/03 21:54 KDMH 032154Z AUTO M01/M03 A3014 RMK AO1 SLP206 P0003 T10061033
 
KBWI - Balto/Wash Intl, Maryland, USA
Distance from station: SSW 20mi, 33km
Updated: Tue, 03-Mar-2015 4:54pm EST
Light freezing, Rain, Mist, Overcast
Light freezing, Rain, Mist, Overcast
 Wind from SSE
Wind: SSE 6 mph , 9 km/h
Temperature: 30°F , -1°C
Wind Chill: 24°F , -4°C
Dew Point: 27°F , -3°C
Humidity: 86%
Barometer: 30.13 inHg , 1020.3 hPa
Summary: Light freezing, Rain, Mist
Clouds: Overcast
Visibility: 4 miles , 6 km
Cloud details: Overcast 3700 ft
2015/03/03 21:54 KBWI 032154Z 16005KT 4SM -FZRA BR OVC037 M01/M03 A3013 RMK AO2 SLP205 P0002 T10111033
KDMW - Carroll Cnty, Maryland, USA
Distance from station: WNW 30mi, 48km
Updated: Tue, 03-Mar-2015 5:20pm EST
Overcast
Overcast
 Wind from S
Wind: S 12 mph , 19 km/h, Gust: 17 mph , 28 km/h
Temperature: 28°F , -2°C
Wind Chill: 18°F , -8°C
Dew Point: 25°F , -4°C
Humidity: 86%
Barometer: 30.05 inHg , 1017.6 hPa
Clouds: Overcast
Visibility: 3 miles , 5 km
Cloud details: Overcast 3200 ft
2015/03/03 22:20 KDMW 032220Z AUTO 17010G15KT 3SM UP OVC032 M02/M04 A3005 RMK AO2
 
KNAK - Annapolis/Naval, Maryland, USA
Distance from station: S 30mi, 48km
Updated: Tue, 03-Mar-2015 5:22pm EST
Light freezing, Rain, Mist, Overcast
Light freezing, Rain, Mist, Overcast
 Wind from SSE
Wind: SSE 9 mph , 15 km/h
Temperature: 30°F , -1°C
Wind Chill: 22°F , -6°C
Dew Point: 27°F , -3°C
Humidity: 86%
Barometer: 30.14 inHg , 1020.7 hPa
Summary: Light freezing, Rain, Mist
Clouds: Overcast
Visibility: 3 miles , 5 km
Cloud details: Overcast 3800 ft
2015/03/03 22:22 KNAK 032222Z AUTO 16008KT 3SM -FZRA BR OVC038 M01/M03 A3014 RMK AO2 P0002 I1002 T10061028
KW29 - Stevensville, Maryland, USA
Distance from station: SSE 31mi, 50km
Updated: Tue, 03-Mar-2015 5:19pm EST
Light rain
Light rain
 Wind from S
Wind: S 8 mph , 13 km/h
Temperature: 32°F , 0°C
Wind Chill: 25°F , -4°C
Dew Point: 30°F , -1°C
Humidity: 93%
Barometer: 30.15 inHg , 1021 hPa
Summary: Light rain
Visibility: 2 1/2 miles , 2 km
2015/03/03 22:19 KW29 032219Z AUTO 17007KT 2 1/2SM -RA 00/M01 A3015 RMK AO1
 
KCGS - College Park, Maryland, USA
Distance from station: SW 38mi, 61km
Updated: Tue, 03-Mar-2015 5:20pm EST
Overcast
Overcast
 Wind from SSE
Wind: SSE 6 mph , 9 km/h
Temperature: 32°F , 0°C
Wind Chill: 26°F , -3°C
Dew Point: 28°F , -2°C
Humidity: 87%
Barometer: 30.11 inHg , 1019.6 hPa
Clouds: Overcast
Visibility: 7 miles , 11 km
Cloud details: Overcast 3500 ft
2015/03/03 22:20 KCGS 032220Z AUTO 15005KT 7SM OVC035 00/M02 A3011 RMK AO1
KGAI - Gaithersburg, Maryland, USA
Distance from station: WSW 40mi, 65km
Updated: Tue, 03-Mar-2015 5:15pm EST
Overcast
Overcast
 Wind from SSE
Wind: SSE 10 mph , 17 km/h
Temperature: 28°F , -2°C
Wind Chill: 19°F , -7°C
Dew Point: 23°F , -5°C
Humidity: 80%
Barometer: 30.12 inHg , 1020 hPa
Clouds: Overcast
Visibility: 7 miles , 11 km
Cloud details: Overcast 2900 ft
2015/03/03 22:15 KGAI 032215Z AUTO 15009KT 7SM OVC029 M02/M05 A3012 RMK AO1
 
KTHV - York, Pennsylvania, USA
Distance from station: NNW 40mi, 65km
Updated: Tue, 03-Mar-2015 5:23pm EST
Light freezing, Rain, Overcast
Light freezing, Rain, Overcast
 Wind from SSE
Wind: SSE 6 mph , 9 km/h
Temperature: 28°F , -2°C
Wind Chill: 21°F , -6°C
Dew Point: 25°F , -4°C
Humidity: 86%
Barometer: 30.05 inHg , 1017.6 hPa
Summary: Light freezing, Rain
Clouds: Overcast
Visibility: 3 miles , 5 km
Cloud details: Overcast 3500 ft
2015/03/03 22:23 KTHV 032223Z AUTO 16005KT 3SM -FZRA OVC035 M02/M04 A3005 RMK AO2 UPB2156E07FZRAB07 P0000 I1001 T10171044
KFDK - Frederick, Maryland, USA
Distance from station: W 47mi, 75km
Updated: Tue, 03-Mar-2015 4:45pm EST
Overcast
Overcast
 Wind from S
Wind: S 9 mph , 15 km/h
Temperature: 32°F , 0°C
Wind Chill: 24°F , -4°C
Dew Point: 19°F , -7°C
Humidity: 60%
Barometer: 30.11 inHg , 1019.6 hPa
Clouds: Overcast
Visibility: 10 miles , 16 km
Cloud details: Overcast 3600 ft
2015/03/03 21:45 KFDK 032145Z 17008KT 10SM OVC036 00/M07 A3011
 
KESN - Easton/Newnam, Maryland, USA
Distance from station: SSE 48mi, 78km
Updated: Tue, 03-Mar-2015 4:50pm EST
Mist, Overcast
Mist, Overcast
 Wind from S
Wind: S 5 mph , 7 km/h
Temperature: 34°F , 1°C
Wind Chill: 29°F , -2°C
Dew Point: 34°F , 1°C
Humidity: 100%
Barometer: 30.19 inHg , 1022.4 hPa
Summary: Mist
Clouds: Overcast
Visibility: 2 1/2 miles , 2 km
Cloud details: Mostly cloudy 1400 ft
Mostly cloudy 2100 ft
Overcast 3400 ft
2015/03/03 21:50 KESN 032150Z 18004KT 2 1/2SM BR BKN014 BKN021 OVC034 01/01 A3019
KDCA - Washington/Natl, Washington D.c., USA
Distance from station: SW 49mi, 79km
Updated: Tue, 03-Mar-2015 4:52pm EST
Light rain, Overcast
Light rain, Overcast
 Wind from S
Wind: S 12 mph , 19 km/h
Temperature: 34°F , 1°C
Wind Chill: 25°F , -4°C
Dew Point: 25°F , -4°C
Humidity: 70%
Barometer: 30.15 inHg , 1021 hPa
Summary: Light rain
Clouds: Overcast
Visibility: 10 miles , 16 km
Cloud details: Overcast 3500 ft
2015/03/03 21:52 KDCA 032152Z 17010KT 10SM -RA OVC035 01/M04 A3015 RMK AO2 SLP210 P0001 T00111044
 
KLNS - Lancaster, Pennsylvania, USA
Distance from station: N 49mi, 79km
Updated: Tue, 03-Mar-2015 5:24pm EST
Mist, Overcast
Mist, Overcast
 Wind from SSE
Wind: SSE 8 mph , 13 km/h
Temperature: 27°F , -3°C
Wind Chill: 19°F , -7°C
Dew Point: 25°F , -4°C
Humidity: 93%
Barometer: 30.08 inHg , 1018.6 hPa
Summary: Mist
Clouds: Overcast
Visibility: 2 1/2 miles , 2 km
Cloud details: Few Clouds 1200 ft
Overcast 4000 ft
2015/03/03 22:24 KLNS 032224Z 16007KT 2 1/2SM UP BR FEW012 OVC040 M03/M04 A3008 RMK AO2 P0004 T10281044
KILG - Wilmington, Delaware, USA
Distance from station: ENE 50mi, 81km
Updated: Tue, 03-Mar-2015 5:28pm EST
Light freezing, Rain, Mist, Overcast
Light freezing, Rain, Mist, Overcast
 Wind from SSE
Wind: SSE 12 mph , 19 km/h
Temperature: 30°F , -1°C
Wind Chill: 20°F , -7°C
Dew Point: 28°F , -2°C
Humidity: 93%
Barometer: 30.14 inHg , 1020.7 hPa
Summary: Light freezing, Rain, Mist
Clouds: Overcast
Visibility: 3 miles , 5 km
Cloud details: Overcast 800 ft
2015/03/03 22:28 KILG 032228Z 16010KT 3SM -FZRA BR OVC008 M01/M02 A3014 RMK AO2 CIG 005V011 P0004 I1004 T10111022